sensor_id;sensor_type;location;lat;lon;timestamp;P1;durP1;ratioP1;P2;durP2;ratioP2
73823;SDS011;62154;54.914;73.444;2022-11-18T00:01:17;64.97;;;20.38;;
73823;SDS011;62154;54.914;73.444;2022-11-18T00:03:49;69.45;;;25.67;;
73823;SDS011;62154;54.914;73.444;2022-11-18T00:06:24;99.78;;;38.47;;
73823;SDS011;62154;54.914;73.444;2022-11-18T00:08:53;325.55;;;103.20;;
73823;SDS011;62154;54.914;73.444;2022-11-18T00:11:22;152.18;;;60.40;;
73823;SDS011;62154;54.914;73.444;2022-11-18T00:14:12;63.17;;;25.38;;
73823;SDS011;62154;54.914;73.444;2022-11-18T00:16:49;49.75;;;18.83;;
73823;SDS011;62154;54.914;73.444;2022-11-18T00:19:19;54.22;;;17.10;;
73823;SDS011;62154;54.914;73.444;2022-11-18T00:21:54;37.85;;;15.65;;
73823;SDS011;62154;54.914;73.444;2022-11-18T00:24:22;47.75;;;19.35;;
73823;SDS011;62154;54.914;73.444;2022-11-18T00:26:58;39.22;;;14.45;;
73823;SDS011;62154;54.914;73.444;2022-11-18T00:29:26;39.75;;;15.38;;
73823;SDS011;62154;54.914;73.444;2022-11-18T00:31:54;48.30;;;18.45;;
73823;SDS011;62154;54.914;73.444;2022-11-18T00:34:21;56.47;;;22.77;;
73823;SDS011;62154;54.914;73.444;2022-11-18T00:36:48;40.92;;;18.02;;
73823;SDS011;62154;54.914;73.444;2022-11-18T00:39:20;43.70;;;17.70;;
73823;SDS011;62154;54.914;73.444;2022-11-18T00:41:48;59.17;;;23.60;;
73823;SDS011;62154;54.914;73.444;2022-11-18T00:44:33;86.22;;;35.35;;
73823;SDS011;62154;54.914;73.444;2022-11-18T00:47:02;122.97;;;45.20;;
73823;SDS011;62154;54.914;73.444;2022-11-18T00:49:34;86.18;;;34.33;;
73823;SDS011;62154;54.914;73.444;2022-11-18T00:52:02;89.70;;;35.47;;
73823;SDS011;62154;54.914;73.444;2022-11-18T00:54:29;84.60;;;32.65;;
73823;SDS011;62154;54.914;73.444;2022-11-18T00:56:59;72.28;;;29.05;;
73823;SDS011;62154;54.914;73.444;2022-11-18T00:59:36;74.90;;;27.40;;
73823;SDS011;62154;54.914;73.444;2022-11-18T01:02:06;71.55;;;27.05;;
73823;SDS011;62154;54.914;73.444;2022-11-18T01:04:33;83.97;;;31.40;;
73823;SDS011;62154;54.914;73.444;2022-11-18T01:07:06;88.80;;;34.85;;
73823;SDS011;62154;54.914;73.444;2022-11-18T01:09:33;140.93;;;45.83;;
73823;SDS011;62154;54.914;73.444;2022-11-18T01:12:05;118.18;;;41.05;;
73823;SDS011;62154;54.914;73.444;2022-11-18T01:14:54;93.50;;;36.38;;
73823;SDS011;62154;54.914;73.444;2022-11-18T01:17:31;75.00;;;30.33;;
73823;SDS011;62154;54.914;73.444;2022-11-18T01:20:09;92.18;;;37.53;;
73823;SDS011;62154;54.914;73.444;2022-11-18T01:22:36;114.90;;;48.45;;
73823;SDS011;62154;54.914;73.444;2022-11-18T01:25:03;95.43;;;37.80;;
73823;SDS011;62154;54.914;73.444;2022-11-18T01:27:36;86.28;;;33.45;;
73823;SDS011;62154;54.914;73.444;2022-11-18T01:30:04;86.28;;;33.90;;
73823;SDS011;62154;54.914;73.444;2022-11-18T01:32:31;94.90;;;35.05;;
73823;SDS011;62154;54.914;73.444;2022-11-18T01:34:58;74.72;;;26.92;;
73823;SDS011;62154;54.914;73.444;2022-11-18T01:37:26;74.32;;;29.15;;
73823;SDS011;62154;54.914;73.444;2022-11-18T01:39:53;60.08;;;23.15;;
73823;SDS011;62154;54.914;73.444;2022-11-18T01:42:20;50.00;;;19.05;;
73823;SDS011;62154;54.914;73.444;2022-11-18T01:44:59;51.30;;;17.17;;
73823;SDS011;62154;54.914;73.444;2022-11-18T01:47:48;35.38;;;14.52;;
73823;SDS011;62154;54.914;73.444;2022-11-18T01:50:39;35.10;;;13.43;;
73823;SDS011;62154;54.914;73.444;2022-11-18T01:53:17;47.70;;;17.13;;
73823;SDS011;62154;54.914;73.444;2022-11-18T01:56:05;52.60;;;18.58;;
73823;SDS011;62154;54.914;73.444;2022-11-18T01:58:42;53.50;;;21.27;;
73823;SDS011;62154;54.914;73.444;2022-11-18T02:01:41;57.53;;;20.83;;
73823;SDS011;62154;54.914;73.444;2022-11-18T02:04:08;73.07;;;24.70;;
73823;SDS011;62154;54.914;73.444;2022-11-18T02:06:37;91.50;;;28.70;;
73823;SDS011;62154;54.914;73.444;2022-11-18T02:09:04;74.78;;;26.70;;
73823;SDS011;62154;54.914;73.444;2022-11-18T02:11:31;61.33;;;21.67;;
73823;SDS011;62154;54.914;73.444;2022-11-18T02:14:20;58.13;;;20.58;;
73823;SDS011;62154;54.914;73.444;2022-11-18T02:16:53;61.10;;;19.92;;
73823;SDS011;62154;54.914;73.444;2022-11-18T02:33:32;77.88;;;32.17;;
73823;SDS011;62154;54.914;73.444;2022-11-18T02:36:19;93.80;;;32.88;;
73823;SDS011;62154;54.914;73.444;2022-11-18T02:38:52;100.88;;;35.08;;
73823;SDS011;62154;54.914;73.444;2022-11-18T02:41:35;92.60;;;32.03;;
73823;SDS011;62154;54.914;73.444;2022-11-18T02:44:08;71.07;;;27.55;;
73823;SDS011;62154;54.914;73.444;2022-11-18T02:46:46;118.97;;;42.10;;
73823;SDS011;62154;54.914;73.444;2022-11-18T02:49:19;275.67;;;88.00;;
73823;SDS011;62154;54.914;73.444;2022-11-18T02:51:55;200.32;;;66.15;;
73823;SDS011;62154;54.914;73.444;2022-11-18T02:54:25;125.82;;;49.70;;
73823;SDS011;62154;54.914;73.444;2022-11-18T02:56:54;94.25;;;36.28;;
73823;SDS011;62154;54.914;73.444;2022-11-18T02:59:23;94.90;;;37.30;;
73823;SDS011;62154;54.914;73.444;2022-11-18T03:01:54;98.30;;;39.65;;
73823;SDS011;62154;54.914;73.444;2022-11-18T03:04:22;80.03;;;31.83;;
73823;SDS011;62154;54.914;73.444;2022-11-18T03:07:29;65.55;;;23.52;;
73823;SDS011;62154;54.914;73.444;2022-11-18T03:09:57;67.53;;;25.05;;
73823;SDS011;62154;54.914;73.444;2022-11-18T03:12:45;85.38;;;30.35;;
73823;SDS011;62154;54.914;73.444;2022-11-18T03:18:17;73.85;;;26.77;;
73823;SDS011;62154;54.914;73.444;2022-11-18T03:20:56;69.95;;;26.73;;
73823;SDS011;62154;54.914;73.444;2022-11-18T03:23:42;67.38;;;23.83;;
73823;SDS011;62154;54.914;73.444;2022-11-18T03:26:29;63.15;;;22.13;;
73823;SDS011;62154;54.914;73.444;2022-11-18T03:31:37;68.85;;;23.27;;
73823;SDS011;62154;54.914;73.444;2022-11-18T03:34:24;70.88;;;28.85;;
73823;SDS011;62154;54.914;73.444;2022-11-18T03:37:00;94.28;;;36.92;;
73823;SDS011;62154;54.914;73.444;2022-11-18T03:39:30;108.95;;;41.25;;
73823;SDS011;62154;54.914;73.444;2022-11-18T03:42:12;128.98;;;47.92;;
73823;SDS011;62154;54.914;73.444;2022-11-18T03:44:56;106.72;;;42.47;;
73823;SDS011;62154;54.914;73.444;2022-11-18T03:47:33;86.53;;;35.85;;
73823;SDS011;62154;54.914;73.444;2022-11-18T03:50:28;90.53;;;36.05;;
73823;SDS011;62154;54.914;73.444;2022-11-18T03:53:01;92.47;;;38.45;;
73823;SDS011;62154;54.914;73.444;2022-11-18T03:55:31;117.18;;;44.45;;
73823;SDS011;62154;54.914;73.444;2022-11-18T03:58:20;313.27;;;118.57;;
73823;SDS011;62154;54.914;73.444;2022-11-18T04:01:07;115.85;;;47.75;;
73823;SDS011;62154;54.914;73.444;2022-11-18T04:03:41;102.63;;;38.17;;
73823;SDS011;62154;54.914;73.444;2022-11-18T04:06:20;102.30;;;36.97;;
73823;SDS011;62154;54.914;73.444;2022-11-18T04:09:14;102.07;;;34.35;;
73823;SDS011;62154;54.914;73.444;2022-11-18T04:12:01;87.80;;;29.90;;
73823;SDS011;62154;54.914;73.444;2022-11-18T04:14:35;76.88;;;26.45;;
73823;SDS011;62154;54.914;73.444;2022-11-18T04:17:13;69.65;;;24.35;;
73823;SDS011;62154;54.914;73.444;2022-11-18T04:19:45;63.90;;;23.88;;
73823;SDS011;62154;54.914;73.444;2022-11-18T04:22:19;58.33;;;22.17;;
73823;SDS011;62154;54.914;73.444;2022-11-18T04:24:58;64.35;;;23.02;;
73823;SDS011;62154;54.914;73.444;2022-11-18T04:27:25;57.10;;;23.33;;
73823;SDS011;62154;54.914;73.444;2022-11-18T04:29:53;62.45;;;22.52;;
73823;SDS011;62154;54.914;73.444;2022-11-18T04:32:32;70.80;;;25.92;;
73823;SDS011;62154;54.914;73.444;2022-11-18T04:35:00;52.08;;;20.15;;
73823;SDS011;62154;54.914;73.444;2022-11-18T04:37:27;66.82;;;25.05;;
73823;SDS011;62154;54.914;73.444;2022-11-18T04:40:00;63.33;;;23.85;;
73823;SDS011;62154;54.914;73.444;2022-11-18T04:42:28;54.97;;;21.40;;
73823;SDS011;62154;54.914;73.444;2022-11-18T04:44:55;60.75;;;23.00;;
73823;SDS011;62154;54.914;73.444;2022-11-18T04:47:22;65.10;;;24.15;;
73823;SDS011;62154;54.914;73.444;2022-11-18T04:49:49;69.95;;;23.67;;
73823;SDS011;62154;54.914;73.444;2022-11-18T04:52:17;67.60;;;24.23;;
73823;SDS011;62154;54.914;73.444;2022-11-18T04:54:44;74.63;;;27.77;;
73823;SDS011;62154;54.914;73.444;2022-11-18T04:57:17;67.50;;;25.05;;
73823;SDS011;62154;54.914;73.444;2022-11-18T04:59:55;44.08;;;18.58;;
73823;SDS011;62154;54.914;73.444;2022-11-18T05:02:22;52.80;;;20.45;;
73823;SDS011;62154;54.914;73.444;2022-11-18T05:04:50;33.33;;;14.70;;
73823;SDS011;62154;54.914;73.444;2022-11-18T05:07:17;48.67;;;17.25;;
73823;SDS011;62154;54.914;73.444;2022-11-18T05:09:44;31.85;;;13.45;;
73823;SDS011;62154;54.914;73.444;2022-11-18T05:12:12;32.97;;;14.25;;
73823;SDS011;62154;54.914;73.444;2022-11-18T05:14:59;33.70;;;12.90;;
73823;SDS011;62154;54.914;73.444;2022-11-18T05:17:26;41.63;;;15.38;;
73823;SDS011;62154;54.914;73.444;2022-11-18T05:19:54;54.45;;;18.55;;
73823;SDS011;62154;54.914;73.444;2022-11-18T05:22:25;41.97;;;15.05;;
73823;SDS011;62154;54.914;73.444;2022-11-18T05:24:52;37.70;;;14.65;;
73823;SDS011;62154;54.914;73.444;2022-11-18T05:27:19;48.55;;;18.15;;
73823;SDS011;62154;54.914;73.444;2022-11-18T05:29:47;46.90;;;18.40;;
73823;SDS011;62154;54.914;73.444;2022-11-18T05:32:19;38.70;;;16.33;;
73823;SDS011;62154;54.914;73.444;2022-11-18T05:34:51;39.10;;;16.35;;
73823;SDS011;62154;54.914;73.444;2022-11-18T05:37:19;50.17;;;18.42;;
73823;SDS011;62154;54.914;73.444;2022-11-18T05:39:46;101.18;;;39.30;;
73823;SDS011;62154;54.914;73.444;2022-11-18T05:42:13;60.67;;;25.35;;
73823;SDS011;62154;54.914;73.444;2022-11-18T05:44:59;54.28;;;22.42;;
73823;SDS011;62154;54.914;73.444;2022-11-18T05:47:26;37.67;;;15.90;;
73823;SDS011;62154;54.914;73.444;2022-11-18T05:49:53;41.03;;;16.88;;
73823;SDS011;62154;54.914;73.444;2022-11-18T05:52:30;40.97;;;15.55;;
73823;SDS011;62154;54.914;73.444;2022-11-18T05:54:57;47.92;;;18.15;;
73823;SDS011;62154;54.914;73.444;2022-11-18T05:57:24;77.03;;;25.27;;
73823;SDS011;62154;54.914;73.444;2022-11-18T05:59:51;37.88;;;14.50;;
73823;SDS011;62154;54.914;73.444;2022-11-18T06:02:19;44.30;;;18.08;;
73823;SDS011;62154;54.914;73.444;2022-11-18T06:04:50;47.80;;;16.48;;
73823;SDS011;62154;54.914;73.444;2022-11-18T06:07:29;33.30;;;12.25;;
73823;SDS011;62154;54.914;73.444;2022-11-18T06:10:14;40.13;;;13.85;;
73823;SDS011;62154;54.914;73.444;2022-11-18T06:12:54;32.88;;;14.80;;
73823;SDS011;62154;54.914;73.444;2022-11-18T06:15:26;34.28;;;14.00;;
73823;SDS011;62154;54.914;73.444;2022-11-18T06:18:08;41.08;;;14.65;;
73823;SDS011;62154;54.914;73.444;2022-11-18T06:20:48;81.03;;;30.80;;
73823;SDS011;62154;54.914;73.444;2022-11-18T06:23:18;30.33;;;12.85;;
73823;SDS011;62154;54.914;73.444;2022-11-18T06:25:46;26.05;;;11.93;;
73823;SDS011;62154;54.914;73.444;2022-11-18T06:28:14;45.55;;;18.80;;
73823;SDS011;62154;54.914;73.444;2022-11-18T06:30:43;40.55;;;17.42;;
73823;SDS011;62154;54.914;73.444;2022-11-18T06:33:10;28.27;;;11.30;;
73823;SDS011;62154;54.914;73.444;2022-11-18T06:35:48;38.30;;;11.48;;
73823;SDS011;62154;54.914;73.444;2022-11-18T06:38:15;24.95;;;8.98;;
73823;SDS011;62154;54.914;73.444;2022-11-18T06:40:42;20.88;;;7.57;;
73823;SDS011;62154;54.914;73.444;2022-11-18T06:43:10;19.67;;;8.73;;
73823;SDS011;62154;54.914;73.444;2022-11-18T06:46:10;20.98;;;7.97;;
73823;SDS011;62154;54.914;73.444;2022-11-18T06:48:57;39.95;;;11.27;;
73823;SDS011;62154;54.914;73.444;2022-11-18T06:51:26;38.65;;;11.40;;
73823;SDS011;62154;54.914;73.444;2022-11-18T06:53:54;20.45;;;7.75;;
73823;SDS011;62154;54.914;73.444;2022-11-18T06:56:21;38.33;;;10.77;;
73823;SDS011;62154;54.914;73.444;2022-11-18T06:58:53;20.10;;;6.53;;
73823;SDS011;62154;54.914;73.444;2022-11-18T07:01:27;16.95;;;6.00;;
73823;SDS011;62154;54.914;73.444;2022-11-18T07:04:00;25.15;;;7.80;;
73823;SDS011;62154;54.914;73.444;2022-11-18T07:06:29;101.38;;;30.17;;
73823;SDS011;62154;54.914;73.444;2022-11-18T07:09:04;14.77;;;5.93;;
73823;SDS011;62154;54.914;73.444;2022-11-18T07:11:33;43.28;;;11.10;;
73823;SDS011;62154;54.914;73.444;2022-11-18T07:14:02;31.10;;;10.02;;
73823;SDS011;62154;54.914;73.444;2022-11-18T07:16:29;15.57;;;4.50;;
73823;SDS011;62154;54.914;73.444;2022-11-18T07:18:56;11.68;;;4.00;;
73823;SDS011;62154;54.914;73.444;2022-11-18T07:21:27;17.83;;;7.57;;
73823;SDS011;62154;54.914;73.444;2022-11-18T07:23:55;17.23;;;7.60;;
73823;SDS011;62154;54.914;73.444;2022-11-18T07:26:22;28.77;;;8.20;;
73823;SDS011;62154;54.914;73.444;2022-11-18T07:28:50;29.48;;;9.30;;
73823;SDS011;62154;54.914;73.444;2022-11-18T07:31:18;23.00;;;6.78;;
73823;SDS011;62154;54.914;73.444;2022-11-18T07:33:50;13.55;;;4.38;;
73823;SDS011;62154;54.914;73.444;2022-11-18T07:36:21;10.38;;;4.40;;
73823;SDS011;62154;54.914;73.444;2022-11-18T07:38:59;25.38;;;9.05;;
73823;SDS011;62154;54.914;73.444;2022-11-18T07:41:28;15.95;;;5.40;;
73823;SDS011;62154;54.914;73.444;2022-11-18T07:43:56;14.73;;;5.65;;
73823;SDS011;62154;54.914;73.444;2022-11-18T07:46:35;23.35;;;8.98;;
73823;SDS011;62154;54.914;73.444;2022-11-18T07:49:03;21.48;;;7.70;;
73823;SDS011;62154;54.914;73.444;2022-11-18T07:51:33;33.72;;;13.70;;
73823;SDS011;62154;54.914;73.444;2022-11-18T07:54:06;17.10;;;5.45;;
73823;SDS011;62154;54.914;73.444;2022-11-18T07:56:35;13.15;;;6.45;;
73823;SDS011;62154;54.914;73.444;2022-11-18T07:59:02;9.60;;;3.20;;
73823;SDS011;62154;54.914;73.444;2022-11-18T08:01:30;5.50;;;2.80;;
73823;SDS011;62154;54.914;73.444;2022-11-18T08:04:03;7.22;;;3.42;;
73823;SDS011;62154;54.914;73.444;2022-11-18T08:09:00;7.72;;;3.78;;
73823;SDS011;62154;54.914;73.444;2022-11-18T08:11:29;5.70;;;2.72;;
73823;SDS011;62154;54.914;73.444;2022-11-18T08:13:57;8.55;;;2.90;;
73823;SDS011;62154;54.914;73.444;2022-11-18T08:16:24;12.95;;;5.05;;
73823;SDS011;62154;54.914;73.444;2022-11-18T08:18:52;9.32;;;4.28;;
73823;SDS011;62154;54.914;73.444;2022-11-18T08:21:20;15.93;;;5.32;;
73823;SDS011;62154;54.914;73.444;2022-11-18T08:23:53;16.67;;;6.07;;
73823;SDS011;62154;54.914;73.444;2022-11-18T08:26:22;18.05;;;6.47;;
73823;SDS011;62154;54.914;73.444;2022-11-18T08:29:00;16.25;;;5.45;;
73823;SDS011;62154;54.914;73.444;2022-11-18T08:31:32;14.27;;;5.57;;
73823;SDS011;62154;54.914;73.444;2022-11-18T08:34:02;9.43;;;3.42;;
73823;SDS011;62154;54.914;73.444;2022-11-18T08:36:36;11.45;;;4.53;;
73823;SDS011;62154;54.914;73.444;2022-11-18T08:39:05;11.88;;;4.90;;
73823;SDS011;62154;54.914;73.444;2022-11-18T08:41:35;16.33;;;5.90;;
73823;SDS011;62154;54.914;73.444;2022-11-18T08:44:05;12.52;;;5.63;;
73823;SDS011;62154;54.914;73.444;2022-11-18T08:46:33;15.95;;;5.63;;
73823;SDS011;62154;54.914;73.444;2022-11-18T08:49:00;28.90;;;8.75;;
73823;SDS011;62154;54.914;73.444;2022-11-18T08:51:27;15.15;;;5.95;;
73823;SDS011;62154;54.914;73.444;2022-11-18T08:53:59;11.63;;;4.18;;
73823;SDS011;62154;54.914;73.444;2022-11-18T08:56:31;14.18;;;5.05;;
73823;SDS011;62154;54.914;73.444;2022-11-18T08:58:59;15.60;;;5.93;;
73823;SDS011;62154;54.914;73.444;2022-11-18T09:01:26;6.07;;;3.35;;
73823;SDS011;62154;54.914;73.444;2022-11-18T09:03:54;10.88;;;4.90;;
73823;SDS011;62154;54.914;73.444;2022-11-18T09:06:23;11.35;;;4.78;;
73823;SDS011;62154;54.914;73.444;2022-11-18T09:08:52;8.18;;;3.50;;
73823;SDS011;62154;54.914;73.444;2022-11-18T09:11:21;11.20;;;4.13;;
73823;SDS011;62154;54.914;73.444;2022-11-18T09:13:53;8.82;;;4.13;;
73823;SDS011;62154;54.914;73.444;2022-11-18T09:16:25;12.90;;;6.55;;
73823;SDS011;62154;54.914;73.444;2022-11-18T09:18:54;11.57;;;4.80;;
73823;SDS011;62154;54.914;73.444;2022-11-18T09:21:23;19.00;;;6.15;;
73823;SDS011;62154;54.914;73.444;2022-11-18T09:23:51;9.85;;;5.10;;
73823;SDS011;62154;54.914;73.444;2022-11-18T09:26:20;16.95;;;6.18;;
73823;SDS011;62154;54.914;73.444;2022-11-18T09:28:51;13.30;;;4.72;;
73823;SDS011;62154;54.914;73.444;2022-11-18T09:31:22;11.10;;;4.00;;
73823;SDS011;62154;54.914;73.444;2022-11-18T09:33:49;15.40;;;6.22;;
73823;SDS011;62154;54.914;73.444;2022-11-18T09:36:18;17.17;;;6.35;;
73823;SDS011;62154;54.914;73.444;2022-11-18T09:38:50;18.95;;;6.80;;
73823;SDS011;62154;54.914;73.444;2022-11-18T09:41:39;34.28;;;11.77;;
73823;SDS011;62154;54.914;73.444;2022-11-18T09:50:05;31.88;;;11.32;;
73823;SDS011;62154;54.914;73.444;2022-11-18T09:52:47;32.05;;;11.68;;
73823;SDS011;62154;54.914;73.444;2022-11-18T09:55:16;33.65;;;9.85;;
73823;SDS011;62154;54.914;73.444;2022-11-18T09:57:53;17.83;;;6.35;;
73823;SDS011;62154;54.914;73.444;2022-11-18T10:00:25;24.98;;;9.63;;
73823;SDS011;62154;54.914;73.444;2022-11-18T10:03:06;20.30;;;7.55;;
73823;SDS011;62154;54.914;73.444;2022-11-18T10:23:20;19.30;;;7.72;;
73823;SDS011;62154;54.914;73.444;2022-11-18T10:25:52;36.22;;;11.82;;
73823;SDS011;62154;54.914;73.444;2022-11-18T10:28:26;52.75;;;16.48;;
73823;SDS011;62154;54.914;73.444;2022-11-18T10:31:05;18.63;;;6.95;;
73823;SDS011;62154;54.914;73.444;2022-11-18T10:33:34;28.20;;;9.85;;
73823;SDS011;62154;54.914;73.444;2022-11-18T10:36:17;21.70;;;6.40;;
73823;SDS011;62154;54.914;73.444;2022-11-18T10:41:46;23.50;;;9.75;;
73823;SDS011;62154;54.914;73.444;2022-11-18T10:47:23;24.98;;;10.70;;
73823;SDS011;62154;54.914;73.444;2022-11-18T10:49:58;42.22;;;14.52;;
73823;SDS011;62154;54.914;73.444;2022-11-18T10:52:31;35.03;;;14.23;;
73823;SDS011;62154;54.914;73.444;2022-11-18T10:57:46;36.78;;;14.43;;
73823;SDS011;62154;54.914;73.444;2022-11-18T11:03:18;45.78;;;15.50;;
73823;SDS011;62154;54.914;73.444;2022-11-18T11:08:57;36.08;;;14.13;;
73823;SDS011;62154;54.914;73.444;2022-11-18T11:11:29;39.13;;;13.88;;
73823;SDS011;62154;54.914;73.444;2022-11-18T11:14:13;51.15;;;17.30;;
73823;SDS011;62154;54.914;73.444;2022-11-18T11:22:21;66.30;;;28.30;;
73823;SDS011;62154;54.914;73.444;2022-11-18T11:24:56;84.30;;;28.65;;
73823;SDS011;62154;54.914;73.444;2022-11-18T11:30:34;92.85;;;28.15;;
73823;SDS011;62154;54.914;73.444;2022-11-18T11:50:54;44.53;;;12.60;;
73823;SDS011;62154;54.914;73.444;2022-11-18T11:56:39;29.73;;;11.13;;
73823;SDS011;62154;54.914;73.444;2022-11-18T12:05:02;45.92;;;15.30;;
73823;SDS011;62154;54.914;73.444;2022-11-18T12:07:55;117.82;;;38.83;;
73823;SDS011;62154;54.914;73.444;2022-11-18T12:10:45;116.28;;;40.20;;
73823;SDS011;62154;54.914;73.444;2022-11-18T12:16:28;147.27;;;45.92;;
73823;SDS011;62154;54.914;73.444;2022-11-18T12:19:16;112.32;;;44.95;;
73823;SDS011;62154;54.914;73.444;2022-11-18T13:18:33;40.28;;;14.57;;
73823;SDS011;62154;54.914;73.444;2022-11-18T13:21:18;25.02;;;8.68;;
73823;SDS011;62154;54.914;73.444;2022-11-18T13:24:15;41.25;;;13.57;;
73823;SDS011;62154;54.914;73.444;2022-11-18T13:26:45;40.05;;;13.68;;
73823;SDS011;62154;54.914;73.444;2022-11-18T13:37:21;146.55;;;47.25;;
73823;SDS011;62154;54.914;73.444;2022-11-18T13:39:50;200.25;;;70.72;;
73823;SDS011;62154;54.914;73.444;2022-11-18T13:42:19;102.93;;;36.92;;
73823;SDS011;62154;54.914;73.444;2022-11-18T13:44:55;352.85;;;109.43;;
73823;SDS011;62154;54.914;73.444;2022-11-18T13:50:11;59.17;;;21.95;;
73823;SDS011;62154;54.914;73.444;2022-11-18T13:58:43;56.10;;;21.40;;
73823;SDS011;62154;54.914;73.444;2022-11-18T14:01:33;52.70;;;16.90;;
73823;SDS011;62154;54.914;73.444;2022-11-18T14:04:06;24.88;;;10.35;;
73823;SDS011;62154;54.914;73.444;2022-11-18T14:06:42;31.35;;;11.25;;
73823;SDS011;62154;54.914;73.444;2022-11-18T14:12:19;47.83;;;19.58;;
73823;SDS011;62154;54.914;73.444;2022-11-18T14:15:11;33.25;;;13.48;;
73823;SDS011;62154;54.914;73.444;2022-11-18T14:17:58;38.80;;;14.65;;
73823;SDS011;62154;54.914;73.444;2022-11-18T14:20:28;195.18;;;52.45;;
73823;SDS011;62154;54.914;73.444;2022-11-18T14:22:57;178.15;;;45.78;;
73823;SDS011;62154;54.914;73.444;2022-11-18T14:25:33;93.15;;;28.58;;
73823;SDS011;62154;54.914;73.444;2022-11-18T14:30:39;37.90;;;11.70;;
73823;SDS011;62154;54.914;73.444;2022-11-18T14:33:18;108.13;;;24.58;;
73823;SDS011;62154;54.914;73.444;2022-11-18T14:35:47;40.67;;;13.52;;
73823;SDS011;62154;54.914;73.444;2022-11-18T14:38:26;39.28;;;12.93;;
73823;SDS011;62154;54.914;73.444;2022-11-18T14:41:03;41.95;;;12.40;;
73823;SDS011;62154;54.914;73.444;2022-11-18T14:43:33;45.33;;;11.95;;
73823;SDS011;62154;54.914;73.444;2022-11-18T14:46:17;56.25;;;19.80;;
73823;SDS011;62154;54.914;73.444;2022-11-18T14:48:52;56.40;;;16.48;;
73823;SDS011;62154;54.914;73.444;2022-11-18T14:51:20;40.95;;;12.88;;
73823;SDS011;62154;54.914;73.444;2022-11-18T14:53:47;116.93;;;31.63;;
73823;SDS011;62154;54.914;73.444;2022-11-18T14:56:29;76.38;;;20.73;;
73823;SDS011;62154;54.914;73.444;2022-11-18T14:59:13;67.53;;;22.25;;
73823;SDS011;62154;54.914;73.444;2022-11-18T15:01:45;39.08;;;15.93;;
73823;SDS011;62154;54.914;73.444;2022-11-18T15:04:13;85.25;;;25.02;;
73823;SDS011;62154;54.914;73.444;2022-11-18T15:06:42;101.72;;;24.23;;
73823;SDS011;62154;54.914;73.444;2022-11-18T15:09:10;172.73;;;38.15;;
73823;SDS011;62154;54.914;73.444;2022-11-18T15:11:40;147.73;;;32.28;;
73823;SDS011;62154;54.914;73.444;2022-11-18T15:14:08;136.15;;;30.75;;
73823;SDS011;62154;54.914;73.444;2022-11-18T15:16:44;132.10;;;28.30;;
73823;SDS011;62154;54.914;73.444;2022-11-18T15:19:21;116.95;;;30.35;;
73823;SDS011;62154;54.914;73.444;2022-11-18T15:21:50;131.88;;;28.65;;
73823;SDS011;62154;54.914;73.444;2022-11-18T15:24:17;117.50;;;25.27;;
73823;SDS011;62154;54.914;73.444;2022-11-18T15:26:46;116.45;;;26.20;;
73823;SDS011;62154;54.914;73.444;2022-11-18T15:29:21;269.25;;;81.45;;
73823;SDS011;62154;54.914;73.444;2022-11-18T15:31:50;187.65;;;60.92;;
73823;SDS011;62154;54.914;73.444;2022-11-18T15:34:26;215.07;;;41.53;;
73823;SDS011;62154;54.914;73.444;2022-11-18T15:36:54;67.07;;;16.55;;
73823;SDS011;62154;54.914;73.444;2022-11-18T15:39:26;79.50;;;20.60;;
73823;SDS011;62154;54.914;73.444;2022-11-18T15:41:54;58.72;;;21.35;;
73823;SDS011;62154;54.914;73.444;2022-11-18T15:44:32;101.65;;;25.70;;
73823;SDS011;62154;54.914;73.444;2022-11-18T15:47:02;53.13;;;16.42;;
73823;SDS011;62154;54.914;73.444;2022-11-18T15:49:29;80.30;;;20.90;;
73823;SDS011;62154;54.914;73.444;2022-11-18T15:51:57;141.27;;;39.90;;
73823;SDS011;62154;54.914;73.444;2022-11-18T15:54:25;52.40;;;15.30;;
73823;SDS011;62154;54.914;73.444;2022-11-18T15:56:52;33.38;;;14.10;;
73823;SDS011;62154;54.914;73.444;2022-11-18T15:59:20;28.60;;;11.95;;
73823;SDS011;62154;54.914;73.444;2022-11-18T16:01:53;30.25;;;12.05;;
73823;SDS011;62154;54.914;73.444;2022-11-18T16:04:24;87.10;;;29.52;;
73823;SDS011;62154;54.914;73.444;2022-11-18T16:07:04;41.15;;;15.20;;
73823;SDS011;62154;54.914;73.444;2022-11-18T16:09:36;47.85;;;15.77;;
73823;SDS011;62154;54.914;73.444;2022-11-18T16:12:28;30.90;;;12.45;;
73823;SDS011;62154;54.914;73.444;2022-11-18T16:15:24;89.07;;;24.33;;
73823;SDS011;62154;54.914;73.444;2022-11-18T16:18:10;58.85;;;24.77;;
73823;SDS011;62154;54.914;73.444;2022-11-18T16:20:40;50.65;;;15.73;;
73823;SDS011;62154;54.914;73.444;2022-11-18T16:23:12;49.40;;;13.73;;
73823;SDS011;62154;54.914;73.444;2022-11-18T16:25:43;68.72;;;20.33;;
73823;SDS011;62154;54.914;73.444;2022-11-18T16:28:15;59.03;;;16.77;;
73823;SDS011;62154;54.914;73.444;2022-11-18T16:30:47;49.83;;;18.20;;
73823;SDS011;62154;54.914;73.444;2022-11-18T16:33:34;25.92;;;11.35;;
73823;SDS011;62154;54.914;73.444;2022-11-18T16:36:11;30.77;;;13.20;;
73823;SDS011;62154;54.914;73.444;2022-11-18T16:38:40;38.33;;;14.13;;
73823;SDS011;62154;54.914;73.444;2022-11-18T16:41:08;35.33;;;14.30;;
73823;SDS011;62154;54.914;73.444;2022-11-18T16:43:54;56.50;;;16.85;;
73823;SDS011;62154;54.914;73.444;2022-11-18T16:46:25;37.08;;;12.25;;
73823;SDS011;62154;54.914;73.444;2022-11-18T16:48:54;31.88;;;11.73;;
73823;SDS011;62154;54.914;73.444;2022-11-18T16:51:32;39.75;;;12.50;;
73823;SDS011;62154;54.914;73.444;2022-11-18T16:54:02;38.83;;;13.95;;
73823;SDS011;62154;54.914;73.444;2022-11-18T16:56:33;40.05;;;12.95;;
73823;SDS011;62154;54.914;73.444;2022-11-18T16:59:03;34.15;;;14.45;;
73823;SDS011;62154;54.914;73.444;2022-11-18T17:01:32;22.77;;;9.40;;
73823;SDS011;62154;54.914;73.444;2022-11-18T17:04:10;24.33;;;8.52;;
73823;SDS011;62154;54.914;73.444;2022-11-18T17:06:39;38.05;;;11.23;;
73823;SDS011;62154;54.914;73.444;2022-11-18T17:09:08;33.13;;;10.35;;
73823;SDS011;62154;54.914;73.444;2022-11-18T17:11:42;43.33;;;14.35;;
73823;SDS011;62154;54.914;73.444;2022-11-18T17:14:10;20.85;;;7.65;;
73823;SDS011;62154;54.914;73.444;2022-11-18T17:16:37;16.63;;;6.43;;
73823;SDS011;62154;54.914;73.444;2022-11-18T17:19:06;22.13;;;8.50;;
73823;SDS011;62154;54.914;73.444;2022-11-18T17:21:44;44.55;;;11.50;;
73823;SDS011;62154;54.914;73.444;2022-11-18T17:24:13;40.53;;;11.73;;
73823;SDS011;62154;54.914;73.444;2022-11-18T17:26:41;47.67;;;13.18;;
73823;SDS011;62154;54.914;73.444;2022-11-18T17:29:09;42.67;;;14.18;;
73823;SDS011;62154;54.914;73.444;2022-11-18T17:31:47;61.92;;;19.58;;
73823;SDS011;62154;54.914;73.444;2022-11-18T17:34:15;57.78;;;20.65;;
73823;SDS011;62154;54.914;73.444;2022-11-18T17:36:42;57.47;;;18.65;;
73823;SDS011;62154;54.914;73.444;2022-11-18T17:39:10;55.78;;;17.05;;
73823;SDS011;62154;54.914;73.444;2022-11-18T17:41:39;47.92;;;18.30;;
73823;SDS011;62154;54.914;73.444;2022-11-18T17:44:25;32.03;;;12.55;;